Time;durP1;ratioP1;P1;durP2;ratioP2;P2;SDS_P1;SDS_P2;PMS_P1;PMS_P2;Temp;Humidity;BMP_temperature;BMP_pressure;BME280_temperature;BME280_humidity;BME280_pressure;Samples;Min_cycle;Max_cycle;Signal;HPM_P1;HPM_P2
2023/06/29 00:01:54;;;;;;;12.27;8.82;;;20.80;99.90;;;;;;5033199;28;20054;-48
2023/06/29 00:04:21;;;;;;;13.50;9.80;;;20.80;99.90;;;;;;5033072;28;20037;-46
2023/06/29 00:06:49;;;;;;;11.63;9.48;;;20.70;99.90;;;;;;5033054;28;20045;-45
2023/06/29 00:09:16;;;;;;;10.85;9.38;;;20.80;99.90;;;;;;5033604;28;20124;-46
2023/06/29 00:11:43;;;;;;;15.75;9.32;;;20.80;99.90;;;;;;5036856;28;20048;-46
2023/06/29 00:14:10;;;;;;;10.98;8.88;;;20.80;99.90;;;;;;5036872;28;20043;-45
2023/06/29 00:16:37;;;;;;;11.13;9.10;;;20.80;99.90;;;;;;5037556;28;20041;-45
2023/06/29 00:19:07;;;;;;;12.80;9.77;;;20.80;99.90;;;;;;5036871;28;20038;-46
2023/06/29 00:21:34;;;;;;;13.50;9.55;;;20.80;99.90;;;;;;5037079;28;20041;-48
2023/06/29 00:24:02;;;;;;;10.88;9.52;;;20.80;99.90;;;;;;5035703;28;20116;-46
2023/06/29 00:26:30;;;;;;;12.18;9.48;;;20.80;99.90;;;;;;5036701;28;20116;-53
2023/06/29 00:28:56;;;;;;;13.07;9.00;;;20.90;99.90;;;;;;5037241;28;20045;-49
2023/06/29 00:31:24;;;;;;;10.57;9.13;;;20.90;99.90;;;;;;5035227;28;20061;-48
2023/06/29 00:33:51;;;;;;;12.55;8.88;;;20.90;99.90;;;;;;5037006;28;20041;-48
2023/06/29 00:36:18;;;;;;;11.90;9.48;;;20.90;99.90;;;;;;5036926;28;20120;-48
2023/06/29 00:38:45;;;;;;;14.10;9.15;;;20.90;99.90;;;;;;5035217;28;20038;-50
2023/06/29 00:41:11;;;;;;;12.93;9.40;;;20.80;99.90;;;;;;5036453;28;20072;-47
2023/06/29 00:43:38;;;;;;;11.77;9.15;;;20.80;99.90;;;;;;5035654;28;20053;-45
2023/06/29 00:46:08;;;;;;;10.82;8.30;;;20.80;99.90;;;;;;5035673;28;20046;-49
2023/06/29 00:48:35;;;;;;;12.70;9.20;;;20.80;99.90;;;;;;5035025;28;20043;-49
2023/06/29 00:51:02;;;;;;;12.85;9.32;;;20.80;99.90;;;;;;5035417;28;20538;-46
2023/06/29 00:53:29;;;;;;;13.50;9.02;;;20.80;99.90;;;;;;5036296;28;20116;-45
2023/06/29 00:55:56;;;;;;;14.38;10.23;;;20.70;99.90;;;;;;5036070;28;20041;-45
2023/06/29 00:58:23;;;;;;;14.30;9.75;;;20.70;99.90;;;;;;5036740;28;20045;-45
2023/06/29 01:00:49;;;;;;;13.30;8.98;;;20.70;99.90;;;;;;5036159;28;20037;-46
2023/06/29 01:03:16;;;;;;;13.10;9.85;;;20.60;99.90;;;;;;5036237;28;20488;-45
2023/06/29 01:05:45;;;;;;;12.45;9.25;;;20.70;99.90;;;;;;5034889;28;20073;-50
2023/06/29 01:08:12;;;;;;;11.93;9.40;;;20.60;99.90;;;;;;5036578;28;20045;-47
2023/06/29 01:10:39;;;;;;;12.60;9.85;;;20.60;99.90;;;;;;5035967;28;20041;-47
2023/06/29 01:13:06;;;;;;;13.27;9.60;;;20.60;99.90;;;;;;5034376;28;20045;-46
2023/06/29 01:15:32;;;;;;;13.63;10.13;;;20.60;99.90;;;;;;5036067;28;20034;-48
2023/06/29 01:17:59;;;;;;;12.57;9.60;;;20.60;99.90;;;;;;5036292;28;20034;-47
2023/06/29 01:20:26;;;;;;;15.75;10.23;;;20.50;99.90;;;;;;5036117;28;20072;-46
2023/06/29 01:22:55;;;;;;;13.07;10.00;;;20.50;99.90;;;;;;5035696;28;20041;-51
2023/06/29 01:25:24;;;;;;;14.23;10.18;;;20.40;99.90;;;;;;5034976;28;20187;-48
2023/06/29 01:27:51;;;;;;;13.82;10.23;;;20.30;99.90;;;;;;5035710;28;20049;-48
2023/06/29 01:30:19;;;;;;;13.77;9.95;;;20.30;99.90;;;;;;5035715;28;20041;-48
2023/06/29 01:32:47;;;;;;;14.55;9.93;;;20.30;99.90;;;;;;5035525;28;20051;-51
2023/06/29 01:35:13;;;;;;;13.80;10.52;;;20.30;99.90;;;;;;5035748;28;20096;-45
2023/06/29 01:37:41;;;;;;;15.43;10.55;;;20.20;99.90;;;;;;5034097;28;20396;-48
2023/06/29 01:40:08;;;;;;;17.27;10.88;;;20.20;99.90;;;;;;5034204;28;20034;-48
2023/06/29 01:42:35;;;;;;;15.88;10.57;;;20.20;99.90;;;;;;5033978;28;20045;-48
2023/06/29 01:45:02;;;;;;;12.48;10.40;;;20.20;99.90;;;;;;5034407;28;20128;-47
2023/06/29 01:47:29;;;;;;;14.80;11.40;;;20.20;99.90;;;;;;5035610;28;20045;-48
2023/06/29 01:49:56;;;;;;;17.88;11.90;;;20.20;99.90;;;;;;5035478;28;20473;-50
2023/06/29 01:52:23;;;;;;;16.17;11.07;;;20.20;99.90;;;;;;5034962;28;20048;-47
2023/06/29 01:54:52;;;;;;;15.30;11.30;;;20.20;99.90;;;;;;5034011;28;20144;-47
2023/06/29 01:57:19;;;;;;;12.80;10.40;;;20.20;99.90;;;;;;5035187;28;20103;-48
2023/06/29 01:59:46;;;;;;;16.77;11.77;;;20.20;99.90;;;;;;5035184;28;20405;-45
2023/06/29 02:02:13;;;;;;;13.70;11.13;;;20.20;99.90;;;;;;5033411;28;20143;-48
2023/06/29 02:04:39;;;;;;;15.10;11.65;;;20.20;99.90;;;;;;5033774;28;20045;-49
2023/06/29 02:07:09;;;;;;;16.05;12.23;;;20.30;99.90;;;;;;5034230;28;20061;-46
2023/06/29 02:09:36;;;;;;;18.08;12.43;;;20.20;99.90;;;;;;5034881;28;20104;-46
2023/06/29 02:12:03;;;;;;;15.60;12.98;;;20.20;99.90;;;;;;5034619;28;20543;-48
2023/06/29 02:14:30;;;;;;;18.00;13.93;;;20.20;99.90;;;;;;5034718;28;20528;-46
2023/06/29 02:16:56;;;;;;;18.83;15.40;;;20.20;99.90;;;;;;5033962;28;20132;-48
2023/06/29 02:19:23;;;;;;;24.60;17.40;;;20.10;99.90;;;;;;5033272;28;20041;-46
2023/06/29 02:21:50;;;;;;;21.08;16.83;;;20.10;99.90;;;;;;5034648;28;20041;-48
2023/06/29 02:24:17;;;;;;;22.38;16.98;;;20.10;99.90;;;;;;5034501;28;20038;-49
2023/06/29 02:26:44;;;;;;;24.75;19.30;;;20.00;99.90;;;;;;5033550;28;20053;-48
2023/06/29 02:29:10;;;;;;;21.33;17.50;;;20.00;99.90;;;;;;5034757;28;20049;-45
2023/06/29 02:31:37;;;;;;;24.08;19.13;;;20.00;99.90;;;;;;5033218;28;20132;-47
2023/06/29 02:34:04;;;;;;;23.83;19.58;;;20.00;99.90;;;;;;5032909;28;20052;-48
2023/06/29 02:36:31;;;;;;;23.98;18.75;;;19.90;99.90;;;;;;5033684;28;20045;-51
2023/06/29 02:38:58;;;;;;;24.58;19.00;;;19.90;99.90;;;;;;5034292;28;20043;-48
2023/06/29 02:41:25;;;;;;;23.35;19.95;;;19.90;99.90;;;;;;5033478;28;20132;-48
2023/06/29 02:43:53;;;;;;;21.65;19.27;;;19.90;99.90;;;;;;5033343;28;20045;-47
2023/06/29 02:46:19;;;;;;;24.35;19.75;;;19.90;99.90;;;;;;5033179;28;20099;-48
2023/06/29 02:48:46;;;;;;;24.38;20.00;;;20.00;99.90;;;;;;5033443;28;20072;-47
2023/06/29 02:51:13;;;;;;;23.50;19.92;;;19.90;99.90;;;;;;5034509;28;20049;-46
2023/06/29 02:53:40;;;;;;;25.83;20.13;;;19.90;99.90;;;;;;5032913;28;20392;-46
2023/06/29 02:56:07;;;;;;;23.13;20.33;;;19.90;99.90;;;;;;5033024;28;20083;-49
2023/06/29 02:58:33;;;;;;;23.05;18.38;;;19.90;99.90;;;;;;5034176;28;20396;-45
2023/06/29 03:01:03;;;;;;;23.90;19.33;;;19.90;99.90;;;;;;5032669;28;20042;-47
2023/06/29 03:03:29;;;;;;;24.08;20.27;;;19.80;99.90;;;;;;5033702;28;20065;-45
2023/06/29 03:05:56;;;;;;;24.77;18.80;;;19.90;99.90;;;;;;5033391;28;20124;-44
2023/06/29 03:08:23;;;;;;;25.27;20.02;;;19.90;99.90;;;;;;5031823;28;20438;-51
2023/06/29 03:10:50;;;;;;;23.10;19.20;;;19.80;99.90;;;;;;5031710;28;20045;-48
2023/06/29 03:13:17;;;;;;;23.45;18.73;;;19.80;99.90;;;;;;5032986;28;20049;-45
2023/06/29 03:15:43;;;;;;;23.05;18.88;;;19.80;99.90;;;;;;5033715;28;20049;-47
2023/06/29 03:18:11;;;;;;;23.13;18.95;;;19.80;99.90;;;;;;5033056;28;20037;-52
2023/06/29 03:20:37;;;;;;;22.95;18.70;;;19.70;99.90;;;;;;5033123;28;20503;-48
2023/06/29 03:23:04;;;;;;;21.63;18.73;;;19.70;99.90;;;;;;5032763;28;20127;-48
2023/06/29 03:25:31;;;;;;;22.13;19.33;;;19.70;99.90;;;;;;5033213;28;20045;-51
2023/06/29 03:27:58;;;;;;;23.55;18.90;;;19.70;99.90;;;;;;5032931;28;20455;-50
2023/06/29 03:30:25;;;;;;;25.80;18.67;;;19.70;99.90;;;;;;5032792;28;20480;-47
2023/06/29 03:32:53;;;;;;;24.38;18.33;;;19.70;99.90;;;;;;5032565;28;20041;-46
2023/06/29 03:35:20;;;;;;;25.13;18.58;;;19.70;99.90;;;;;;5032948;28;20045;-52
2023/06/29 03:37:47;;;;;;;21.88;17.33;;;19.60;99.90;;;;;;5033089;28;20042;-49
2023/06/29 03:40:14;;;;;;;23.13;17.52;;;19.60;99.90;;;;;;5032985;28;20041;-45
2023/06/29 03:42:40;;;;;;;20.55;16.65;;;19.60;99.90;;;;;;5032448;28;20052;-52
2023/06/29 03:45:07;;;;;;;20.17;16.42;;;19.60;99.90;;;;;;5031454;28;20052;-51
2023/06/29 03:47:34;;;;;;;22.45;16.65;;;19.60;99.90;;;;;;5032706;28;20373;-48
2023/06/29 03:50:01;;;;;;;22.08;16.92;;;19.60;99.90;;;;;;5032470;28;20435;-49
2023/06/29 03:52:27;;;;;;;19.65;16.52;;;19.60;99.90;;;;;;5032431;28;20041;-47
2023/06/29 03:54:54;;;;;;;20.25;15.68;;;19.60;99.90;;;;;;5032738;28;20092;-50
2023/06/29 03:57:21;;;;;;;19.98;15.38;;;19.50;99.90;;;;;;5033061;28;20121;-45
2023/06/29 03:59:48;;;;;;;20.85;15.15;;;19.50;99.90;;;;;;5032835;28;20420;-49
2023/06/29 04:02:14;;;;;;;19.73;14.98;;;19.50;99.90;;;;;;4990843;28;1210964;-49
2023/06/29 04:04:41;;;;;;;21.38;14.93;;;19.50;99.90;;;;;;5033411;28;20057;-48
2023/06/29 04:07:08;;;;;;;20.30;15.43;;;19.40;99.90;;;;;;5033588;28;20080;-49
2023/06/29 04:09:35;;;;;;;14.00;11.90;;;19.40;99.90;;;;;;5033661;28;20072;-47
2023/06/29 04:12:02;;;;;;;14.10;10.70;;;19.20;99.90;;;;;;5033163;28;20049;-46
2023/06/29 04:14:28;;;;;;;10.23;7.53;;;19.20;99.90;;;;;;5033024;28;20042;-49
2023/06/29 04:16:55;;;;;;;8.52;6.22;;;19.20;99.90;;;;;;5033601;28;20049;-46
2023/06/29 04:19:22;;;;;;;5.63;4.50;;;19.10;99.90;;;;;;5033305;28;20041;-50
2023/06/29 04:21:49;;;;;;;4.32;3.47;;;19.00;99.90;;;;;;5033167;28;20416;-51
2023/06/29 04:24:17;;;;;;;3.65;2.65;;;18.90;99.90;;;;;;5033556;28;20512;-51
2023/06/29 04:26:43;;;;;;;2.80;1.27;;;18.80;99.90;;;;;;5033507;28;20041;-48
2023/06/29 04:29:10;;;;;;;1.92;1.08;;;18.60;99.90;;;;;;5033091;28;20439;-52
2023/06/29 04:31:37;;;;;;;1.60;1.00;;;18.40;99.90;;;;;;5033301;28;20385;-52
2023/06/29 04:34:04;;;;;;;1.60;0.73;;;18.20;99.90;;;;;;5032687;28;20095;-48
2023/06/29 04:36:31;;;;;;;1.67;0.73;;;18.00;99.90;;;;;;5033403;28;20044;-53
2023/06/29 04:38:58;;;;;;;0.85;0.47;;;17.80;99.90;;;;;;5033030;28;20115;-48
2023/06/29 04:41:31;;;;;;;1.92;0.40;;;17.70;99.90;;;;;;5032954;28;20116;-49
2023/06/29 04:43:58;;;;;;;2.28;0.40;;;17.60;99.90;;;;;;5032965;28;20052;-46
2023/06/29 04:46:25;;;;;;;0.50;0.25;;;17.50;99.90;;;;;;5032845;28;20041;-48
2023/06/29 04:48:51;;;;;;;0.70;0.30;;;17.50;99.90;;;;;;5033207;28;20361;-48
2023/06/29 04:51:18;;;;;;;0.88;0.32;;;17.40;99.90;;;;;;5033272;28;20042;-50
2023/06/29 04:53:45;;;;;;;1.35;0.30;;;17.40;99.90;;;;;;5032508;28;20092;-47
2023/06/29 04:56:12;;;;;;;1.90;0.40;;;17.50;99.90;;;;;;5033937;28;20045;-52
2023/06/29 04:58:38;;;;;;;0.60;0.20;;;17.30;99.90;;;;;;5036222;28;20042;-54
2023/06/29 05:01:05;;;;;;;0.85;0.40;;;17.40;99.90;;;;;;5036394;28;20041;-50
2023/06/29 05:03:32;;;;;;;1.15;0.30;;;17.30;99.90;;;;;;5035106;28;20064;-46
2023/06/29 05:05:59;;;;;;;0.70;0.20;;;17.30;99.90;;;;;;5036179;28;20052;-46
2023/06/29 05:08:26;;;;;;;0.55;0.20;;;17.20;99.90;;;;;;5061283;28;20056;-48
2023/06/29 05:10:53;;;;;;;1.02;0.30;;;17.20;99.90;;;;;;5056197;28;20041;-47
2023/06/29 05:13:19;;;;;;;0.70;0.25;;;17.20;99.90;;;;;;5055826;28;20041;-49
2023/06/29 05:15:48;;;;;;;0.70;0.30;;;17.20;99.90;;;;;;5056164;28;20045;-49
2023/06/29 05:18:15;;;;;;;1.10;0.30;;;17.30;99.90;;;;;;5055922;28;20532;-51
2023/06/29 05:20:42;;;;;;;0.85;0.20;;;17.10;99.90;;;;;;5056483;28;20036;-46
2023/06/29 05:23:10;;;;;;;0.98;0.40;;;17.10;99.90;;;;;;5056084;28;20045;-46
2023/06/29 05:25:37;;;;;;;1.30;0.20;;;17.20;99.90;;;;;;5055997;28;20055;-49
2023/06/29 05:28:04;;;;;;;0.90;0.40;;;17.20;99.90;;;;;;5054768;28;20049;-50
2023/06/29 05:30:31;;;;;;;1.17;0.22;;;17.20;99.90;;;;;;5055803;28;20072;-52
2023/06/29 05:32:58;;;;;;;1.90;0.55;;;17.10;99.90;;;;;;5056069;28;20041;-45
2023/06/29 05:35:25;;;;;;;1.08;0.22;;;17.00;99.90;;;;;;5056149;28;20086;-50
2023/06/29 05:37:51;;;;;;;0.50;0.20;;;16.90;99.90;;;;;;5056068;28;20068;-51
2023/06/29 05:40:18;;;;;;;7.68;0.65;;;16.80;99.90;;;;;;5055794;28;20037;-55
2023/06/29 05:42:45;;;;;;;0.60;0.20;;;16.70;99.90;;;;;;5055387;28;20037;-49
2023/06/29 05:45:12;;;;;;;0.65;0.20;;;16.60;99.90;;;;;;5055646;28;20052;-46
2023/06/29 05:47:39;;;;;;;1.20;0.32;;;16.50;99.90;;;;;;5055485;28;20141;-48
2023/06/29 05:50:06;;;;;;;2.50;0.40;;;16.50;99.90;;;;;;5055982;28;20094;-53
2023/06/29 05:52:37;;;;;;;0.68;0.22;;;16.60;99.90;;;;;;5055847;28;20048;-50
2023/06/29 05:55:04;;;;;;;0.82;0.35;;;16.60;99.90;;;;;;5054067;28;20490;-51
2023/06/29 05:57:31;;;;;;;1.35;0.40;;;16.60;99.90;;;;;;5055754;28;20496;-46
2023/06/29 05:59:57;;;;;;;2.55;0.50;;;16.50;99.90;;;;;;5055573;28;20041;-49
2023/06/29 06:02:24;;;;;;;1.45;0.70;;;16.60;99.90;;;;;;5054762;28;20056;-50
2023/06/29 06:04:51;;;;;;;0.80;0.43;;;16.60;99.90;;;;;;5055625;28;20554;-47
2023/06/29 06:07:18;;;;;;;0.98;0.43;;;16.60;99.90;;;;;;5054987;28;20545;-49
2023/06/29 06:09:45;;;;;;;1.30;0.55;;;16.60;99.90;;;;;;5054549;28;20045;-50
2023/06/29 06:12:11;;;;;;;1.65;0.70;;;16.70;99.90;;;;;;5055435;28;20502;-46
2023/06/29 06:14:38;;;;;;;1.30;0.45;;;16.60;99.90;;;;;;5054794;28;20064;-51
2023/06/29 06:17:05;;;;;;;1.15;0.57;;;16.70;99.90;;;;;;5054641;28;20468;-48
2023/06/29 06:19:32;;;;;;;0.90;0.40;;;16.70;99.90;;;;;;5055102;28;20071;-45
2023/06/29 06:21:59;;;;;;;1.63;0.60;;;16.70;99.90;;;;;;5054691;28;20037;-43
2023/06/29 06:24:25;;;;;;;0.77;0.30;;;16.70;99.90;;;;;;5069982;28;20049;-43
2023/06/29 06:26:52;;;;;;;1.73;0.50;;;16.70;99.90;;;;;;5054713;28;20041;-43
2023/06/29 06:29:19;;;;;;;1.20;0.50;;;16.70;99.90;;;;;;5054842;28;20140;-45
2023/06/29 06:31:46;;;;;;;1.20;0.50;;;16.70;99.90;;;;;;5054399;28;20533;-49
2023/06/29 06:34:13;;;;;;;0.82;0.40;;;16.70;99.90;;;;;;5054451;28;20041;-49
2023/06/29 06:36:40;;;;;;;2.70;0.70;;;16.70;99.90;;;;;;5054762;28;20541;-47
2023/06/29 06:39:06;;;;;;;1.75;0.50;;;16.60;99.90;;;;;;5054241;28;20041;-46
2023/06/29 06:41:33;;;;;;;2.28;0.50;;;16.70;99.90;;;;;;5054662;28;20044;-47
2023/06/29 06:44:00;;;;;;;5.93;0.60;;;16.70;99.90;;;;;;5054783;28;20075;-46
2023/06/29 06:46:27;;;;;;;2.28;0.70;;;16.80;99.90;;;;;;5054546;28;20369;-51
2023/06/29 06:48:54;;;;;;;1.80;0.73;;;16.80;99.90;;;;;;5054113;28;20072;-49
2023/06/29 06:51:20;;;;;;;1.83;0.70;;;16.80;99.90;;;;;;5054361;28;20094;-50
2023/06/29 06:53:47;;;;;;;2.60;1.00;;;16.80;99.90;;;;;;5053956;28;20035;-51
2023/06/29 06:56:14;;;;;;;2.75;0.65;;;16.90;99.90;;;;;;5054581;28;20103;-53
2023/06/29 06:58:41;;;;;;;1.98;0.73;;;16.90;99.90;;;;;;5053777;28;20041;-48
2023/06/29 07:01:09;;;;;;;2.70;0.60;;;16.90;99.90;;;;;;5053932;28;20056;-48
2023/06/29 07:03:35;;;;;;;1.77;0.63;;;16.90;99.90;;;;;;5053891;28;20472;-45
2023/06/29 07:06:02;;;;;;;3.33;0.60;;;16.80;99.90;;;;;;5054055;28;20048;-48
2023/06/29 07:08:29;;;;;;;1.48;0.65;;;16.80;99.90;;;;;;5052847;28;20043;-51
2023/06/29 07:10:56;;;;;;;2.72;1.35;;;16.80;99.90;;;;;;5053491;28;20045;-51
2023/06/29 07:13:24;;;;;;;2.47;1.60;;;16.70;99.90;;;;;;5052465;28;20040;-52
2023/06/29 07:15:50;;;;;;;3.55;1.90;;;16.60;99.90;;;;;;5053668;28;20095;-52
2023/06/29 07:18:17;;;;;;;3.90;2.47;;;16.70;99.90;;;;;;5053731;28;20068;-46
2023/06/29 07:20:44;;;;;;;2.70;1.88;;;16.60;99.90;;;;;;5053450;28;20503;-48
2023/06/29 07:23:14;;;;;;;3.10;1.92;;;16.60;99.90;;;;;;5053092;28;20125;-48
2023/06/29 07:25:44;;;;;;;3.40;1.98;;;16.60;99.90;;;;;;5052205;28;20037;-52
2023/06/29 07:28:11;;;;;;;4.97;2.53;;;16.50;99.90;;;;;;5052260;28;20045;-50
2023/06/29 07:30:38;;;;;;;4.47;2.10;;;16.50;99.90;;;;;;5052358;28;20048;-44
2023/06/29 07:33:05;;;;;;;3.50;2.25;;;16.60;99.90;;;;;;5051721;28;20041;-45
2023/06/29 07:35:31;;;;;;;5.00;2.05;;;16.50;99.90;;;;;;5051744;28;20078;-43
2023/06/29 07:37:58;;;;;;;4.53;2.60;;;16.50;99.90;;;;;;5052047;28;20117;-45
2023/06/29 07:40:25;;;;;;;2.72;2.17;;;16.50;99.90;;;;;;5053798;28;20063;-44
2023/06/29 07:42:52;;;;;;;3.97;2.17;;;16.50;99.90;;;;;;5053927;28;20041;-48
2023/06/29 07:45:18;;;;;;;4.47;2.40;;;16.50;99.90;;;;;;5053497;28;20140;-50
2023/06/29 07:47:45;;;;;;;3.55;2.28;;;16.50;99.90;;;;;;5053548;28;20048;-47
2023/06/29 07:50:12;;;;;;;4.45;2.10;;;16.50;99.90;;;;;;5053633;28;20041;-48
2023/06/29 07:52:40;;;;;;;3.83;2.50;;;16.60;99.90;;;;;;5053843;28;20076;-52
2023/06/29 07:55:06;;;;;;;2.92;2.28;;;16.70;99.90;;;;;;5053802;28;20431;-51
2023/06/29 07:57:35;;;;;;;4.35;2.60;;;16.70;99.90;;;;;;5053167;28;20069;-48
2023/06/29 08:00:06;;;;;;;3.50;2.53;;;16.70;99.90;;;;;;5053350;28;20127;-49
2023/06/29 08:02:45;;;;;;;3.85;2.67;;;16.70;99.90;;;;;;5051226;28;20053;-47
2023/06/29 08:05:12;;;;;;;5.07;2.55;;;16.70;99.90;;;;;;5051487;28;20061;-45
2023/06/29 08:07:41;;;;;;;7.07;2.60;;;16.70;99.90;;;;;;5050920;28;20049;-46
2023/06/29 08:10:08;;;;;;;3.75;2.78;;;16.80;99.90;;;;;;5051211;28;20136;-48
2023/06/29 08:12:35;;;;;;;3.88;2.97;;;16.80;99.90;;;;;;5051330;28;20140;-47
2023/06/29 08:15:02;;;;;;;6.10;3.03;;;16.90;99.90;;;;;;5051164;28;20141;-48
2023/06/29 08:17:29;;;;;;;3.63;2.75;;;16.90;99.90;;;;;;5051167;28;20053;-48
2023/06/29 08:19:55;;;;;;;5.32;2.72;;;16.90;99.90;;;;;;5051322;28;20051;-51
2023/06/29 08:22:22;;;;;;;5.68;2.88;;;16.90;99.90;;;;;;5034165;28;20476;-46
2023/06/29 08:24:49;;;;;;;4.75;3.25;;;16.80;99.90;;;;;;5051446;28;20049;-51
2023/06/29 08:27:16;;;;;;;6.32;3.50;;;16.80;99.90;;;;;;5051096;28;20128;-47
2023/06/29 08:29:43;;;;;;;5.15;3.58;;;16.80;99.90;;;;;;5051229;28;20057;-47
2023/06/29 08:32:10;;;;;;;5.55;3.47;;;16.90;99.90;;;;;;5053740;28;20045;-47
2023/06/29 08:34:36;;;;;;;6.05;3.33;;;16.90;99.90;;;;;;5056470;28;20117;-46
2023/06/29 08:37:03;;;;;;;5.53;3.70;;;16.90;99.90;;;;;;5057317;28;20041;-45
2023/06/29 08:39:30;;;;;;;5.57;3.88;;;17.00;99.90;;;;;;5056717;28;20033;-46
2023/06/29 08:41:57;;;;;;;5.53;3.30;;;17.00;99.90;;;;;;5057019;28;20056;-45
2023/06/29 08:44:29;;;;;;;6.88;3.47;;;17.00;99.90;;;;;;5057141;28;20051;-45
2023/06/29 08:46:56;;;;;;;4.47;3.50;;;17.00;99.90;;;;;;5057028;28;20045;-49
2023/06/29 08:49:22;;;;;;;6.05;3.20;;;17.00;99.90;;;;;;5057105;28;20110;-47
2023/06/29 08:51:49;;;;;;;3.90;2.85;;;17.00;99.90;;;;;;5056252;28;20067;-44
2023/06/29 08:54:16;;;;;;;5.30;3.35;;;17.00;99.90;;;;;;5056386;28;20045;-45
2023/06/29 08:56:43;;;;;;;5.63;2.83;;;17.00;99.90;;;;;;5056918;28;20037;-45
2023/06/29 08:59:10;;;;;;;6.22;3.38;;;16.90;99.90;;;;;;5056175;28;20043;-48
2023/06/29 09:01:36;;;;;;;5.50;2.92;;;17.00;99.90;;;;;;5054762;28;20053;-48
2023/06/29 09:04:04;;;;;;;5.03;3.10;;;17.10;99.90;;;;;;5056285;28;20369;-48
2023/06/29 09:06:32;;;;;;;4.80;3.30;;;17.10;99.90;;;;;;5056613;28;20045;-46
2023/06/29 09:08:59;;;;;;;8.15;3.47;;;17.10;99.90;;;;;;5056730;28;20044;-49
2023/06/29 09:11:26;;;;;;;4.03;3.10;;;17.10;99.90;;;;;;5056646;28;20472;-46
2023/06/29 09:13:53;;;;;;;4.70;3.10;;;17.10;99.90;;;;;;5056113;28;20119;-45
2023/06/29 09:16:21;;;;;;;5.10;2.92;;;17.20;99.90;;;;;;5055988;28;20095;-48
2023/06/29 09:18:54;;;;;;;3.50;2.95;;;17.30;99.90;;;;;;5056122;28;20511;-47
2023/06/29 09:21:25;;;;;;;6.25;3.00;;;17.40;99.90;;;;;;5056485;28;20460;-50
2023/06/29 09:23:51;;;;;;;5.43;2.90;;;17.50;99.90;;;;;;5056036;28;20132;-46
2023/06/29 09:26:18;;;;;;;4.82;2.60;;;17.50;99.90;;;;;;5056095;28;20387;-46
2023/06/29 09:28:45;;;;;;;5.57;2.85;;;17.50;99.90;;;;;;5056133;28;20534;-50
2023/06/29 09:31:13;;;;;;;2.88;2.35;;;17.60;99.90;;;;;;5056169;28;20060;-51
2023/06/29 09:33:40;;;;;;;4.85;2.55;;;17.60;99.90;;;;;;5055568;28;20044;-48
2023/06/29 09:36:07;;;;;;;3.30;2.50;;;17.60;99.90;;;;;;5055830;28;20407;-49
2023/06/29 09:38:35;;;;;;;2.78;2.15;;;17.60;99.90;;;;;;5055869;28;20044;-53
2023/06/29 09:41:02;;;;;;;3.95;2.40;;;17.50;99.90;;;;;;5056043;28;20049;-49
2023/06/29 09:43:29;;;;;;;4.82;2.35;;;17.40;99.90;;;;;;5055172;28;20045;-46
2023/06/29 09:45:55;;;;;;;3.63;2.08;;;17.50;99.90;;;;;;5055648;28;20037;-47
2023/06/29 09:48:22;;;;;;;2.55;2.08;;;17.50;99.90;;;;;;5055674;28;20427;-46
2023/06/29 09:50:52;;;;;;;3.95;2.40;;;17.60;99.90;;;;;;5055400;28;20102;-46
2023/06/29 09:53:20;;;;;;;5.55;2.10;;;17.70;99.90;;;;;;5055422;28;20120;-44
2023/06/29 09:55:46;;;;;;;2.80;1.95;;;17.60;99.90;;;;;;5055252;28;20102;-44
2023/06/29 09:58:14;;;;;;;3.40;2.05;;;17.60;99.90;;;;;;5055017;28;20037;-44
2023/06/29 10:00:40;;;;;;;2.67;1.90;;;17.60;99.90;;;;;;5055376;28;20469;-45
2023/06/29 10:03:08;;;;;;;5.40;1.85;;;17.70;99.90;;;;;;5054800;28;20057;-50
2023/06/29 10:05:35;;;;;;;2.50;1.70;;;17.80;99.90;;;;;;5055101;28;20045;-51
2023/06/29 10:08:02;;;;;;;3.03;1.90;;;18.00;99.90;;;;;;5055311;28;20045;-49
2023/06/29 10:10:29;;;;;;;4.25;1.65;;;18.20;99.90;;;;;;5055494;28;20041;-49
2023/06/29 10:12:56;;;;;;;2.28;1.58;;;18.50;99.90;;;;;;5055273;28;20037;-48
2023/06/29 10:15:22;;;;;;;2.15;1.63;;;18.40;99.90;;;;;;5054812;28;20037;-50
2023/06/29 10:17:49;;;;;;;2.72;1.65;;;18.50;99.90;;;;;;5054928;28;20045;-48
2023/06/29 10:20:16;;;;;;;5.03;1.30;;;18.50;99.90;;;;;;5054793;28;20627;-44
2023/06/29 10:22:43;;;;;;;3.22;1.20;;;18.40;99.90;;;;;;5055229;28;20048;-45
2023/06/29 10:25:10;;;;;;;2.90;1.20;;;18.40;99.90;;;;;;5054999;28;20072;-44
2023/06/29 10:27:36;;;;;;;2.47;1.25;;;18.30;99.90;;;;;;5054895;28;20044;-48
2023/06/29 10:30:03;;;;;;;2.08;1.00;;;18.40;99.90;;;;;;5054559;28;20048;-44
2023/06/29 10:32:30;;;;;;;3.35;1.60;;;18.40;99.90;;;;;;5054702;28;20404;-48
2023/06/29 10:34:57;;;;;;;3.08;1.50;;;18.40;99.90;;;;;;5054765;28;20117;-46
2023/06/29 10:37:24;;;;;;;3.17;1.30;;;18.50;99.90;;;;;;5054975;28;20067;-47
2023/06/29 10:39:51;;;;;;;5.10;1.40;;;18.50;99.90;;;;;;5055031;28;20464;-48
2023/06/29 10:42:17;;;;;;;2.90;1.20;;;18.70;99.90;;;;;;5054244;28;20120;-46
2023/06/29 10:44:44;;;;;;;2.85;1.02;;;18.80;99.90;;;;;;5054397;28;20041;-50
2023/06/29 10:47:11;;;;;;;3.92;1.20;;;18.80;99.90;;;;;;5054390;28;20495;-53
2023/06/29 10:49:38;;;;;;;2.30;1.30;;;18.90;99.90;;;;;;5054185;28;20041;-49
2023/06/29 10:52:05;;;;;;;2.00;1.40;;;18.80;99.90;;;;;;5054441;28;20385;-51
2023/06/29 10:54:32;;;;;;;3.15;1.48;;;18.80;99.90;;;;;;5053506;28;20041;-47
2023/06/29 10:56:59;;;;;;;2.10;1.30;;;18.90;99.90;;;;;;5054113;28;20476;-50
2023/06/29 10:59:26;;;;;;;4.80;1.50;;;18.90;99.90;;;;;;5054297;28;20060;-49
2023/06/29 11:01:52;;;;;;;5.15;1.23;;;19.10;99.90;;;;;;5053975;28;20532;-46
2023/06/29 11:04:19;;;;;;;2.55;1.25;;;19.20;99.90;;;;;;5054342;28;20041;-46
2023/06/29 11:06:46;;;;;;;2.55;1.20;;;19.20;99.90;;;;;;5054239;28;20043;-50
2023/06/29 11:09:13;;;;;;;1.98;1.38;;;19.30;99.90;;;;;;5053877;28;20045;-47
2023/06/29 11:11:40;;;;;;;3.03;1.70;;;19.20;99.90;;;;;;5052970;28;20118;-51
2023/06/29 11:14:07;;;;;;;5.00;1.77;;;19.30;99.90;;;;;;5053606;28;20037;-48
2023/06/29 11:16:34;;;;;;;1.90;1.40;;;19.30;99.90;;;;;;5053959;28;20072;-47
2023/06/29 11:19:01;;;;;;;4.70;1.60;;;19.30;99.90;;;;;;5053838;28;20091;-52
2023/06/29 11:21:28;;;;;;;2.63;1.50;;;19.30;99.90;;;;;;5054374;28;20051;-46
2023/06/29 11:23:55;;;;;;;3.17;1.58;;;19.30;99.90;;;;;;5053709;28;20107;-50
2023/06/29 11:26:22;;;;;;;4.03;1.60;;;19.40;99.90;;;;;;5053964;28;20033;-48
2023/06/29 11:28:49;;;;;;;3.33;1.38;;;19.50;99.90;;;;;;5054264;28;20435;-47
2023/06/29 11:31:16;;;;;;;2.67;1.58;;;19.70;99.90;;;;;;5053625;28;20606;-48
2023/06/29 11:33:43;;;;;;;2.70;1.52;;;19.90;99.90;;;;;;5052290;28;20049;-46
2023/06/29 11:36:10;;;;;;;3.38;1.20;;;20.00;99.90;;;;;;5053909;28;20073;-51
2023/06/29 11:38:36;;;;;;;3.00;1.60;;;20.00;99.90;;;;;;5053409;28;20472;-46
2023/06/29 11:41:04;;;;;;;2.42;1.17;;;20.10;99.90;;;;;;5053494;28;20045;-49
2023/06/29 11:43:30;;;;;;;3.53;1.27;;;20.10;99.90;;;;;;5053405;28;20128;-49
2023/06/29 11:45:58;;;;;;;2.92;1.40;;;20.00;99.90;;;;;;5053565;28;20037;-49
2023/06/29 11:48:24;;;;;;;3.97;1.42;;;19.90;99.90;;;;;;5053484;28;20068;-48
2023/06/29 11:50:51;;;;;;;2.20;1.20;;;20.00;99.90;;;;;;5053725;28;20555;-47
2023/06/29 11:53:18;;;;;;;1.80;1.10;;;20.00;99.90;;;;;;5053330;28;20041;-51
2023/06/29 11:55:45;;;;;;;2.85;1.20;;;20.00;99.90;;;;;;5053187;28;20033;-51
2023/06/29 11:58:12;;;;;;;2.58;1.23;;;20.20;99.90;;;;;;5053230;28;20496;-49
2023/06/29 12:00:39;;;;;;;3.03;1.25;;;20.30;99.90;;;;;;5053431;28;20041;-48
2023/06/29 12:03:06;;;;;;;2.00;1.20;;;20.30;99.90;;;;;;5053167;28;20069;-52
2023/06/29 12:05:33;;;;;;;3.13;1.30;;;20.40;99.90;;;;;;5053716;28;20049;-47
2023/06/29 12:08:00;;;;;;;2.78;1.40;;;20.50;98.70;;;;;;5057359;28;20041;-51
2023/06/29 12:10:27;;;;;;;4.25;1.13;;;20.50;99.10;;;;;;5057135;28;20033;-47
2023/06/29 12:12:59;;;;;;;2.20;0.95;;;20.60;98.80;;;;;;5057023;28;20079;-48
2023/06/29 12:15:25;;;;;;;2.67;1.23;;;20.80;98.10;;;;;;5057536;28;20064;-49
2023/06/29 12:17:53;;;;;;;1.88;0.80;;;20.90;98.10;;;;;;5057464;28;20037;-50
2023/06/29 12:20:26;;;;;;;3.78;1.05;;;20.90;97.50;;;;;;5057004;28;20124;-47
2023/06/29 12:22:53;;;;;;;3.22;1.48;;;21.00;97.10;;;;;;5055830;28;20124;-48
2023/06/29 12:25:20;;;;;;;2.90;0.90;;;21.10;96.80;;;;;;5057225;28;20052;-48
2023/06/29 12:27:47;;;;;;;4.15;1.10;;;21.10;97.40;;;;;;5057066;28;20045;-46
2023/06/29 12:30:15;;;;;;;5.65;1.17;;;21.30;97.80;;;;;;5057071;28;20041;-48
2023/06/29 12:32:42;;;;;;;3.20;1.30;;;21.30;96.80;;;;;;5057232;28;20494;-48
2023/06/29 12:35:08;;;;;;;2.92;1.10;;;21.40;97.50;;;;;;5056609;28;20481;-45
2023/06/29 12:37:38;;;;;;;2.40;1.00;;;21.50;96.90;;;;;;5055480;28;20040;-45
2023/06/29 12:40:04;;;;;;;3.35;1.30;;;21.50;97.30;;;;;;5057183;28;20099;-50